sensor_id;sensor_type;location;lat;lon;timestamp;P1;durP1;ratioP1;P2;durP2;ratioP2
65759;SDS011;52496;51.082;5.066;2023-07-29T00:01:45;5.25;;;2.45;;
65759;SDS011;52496;51.082;5.066;2023-07-29T00:04:16;4.53;;;2.42;;
65759;SDS011;52496;51.082;5.066;2023-07-29T00:06:46;3.85;;;2.28;;
65759;SDS011;52496;51.082;5.066;2023-07-29T00:09:16;5.18;;;2.42;;
65759;SDS011;52496;51.082;5.066;2023-07-29T00:11:47;4.75;;;2.33;;
65759;SDS011;52496;51.082;5.066;2023-07-29T00:14:17;5.78;;;2.10;;
65759;SDS011;52496;51.082;5.066;2023-07-29T00:16:48;4.22;;;2.28;;
65759;SDS011;52496;51.082;5.066;2023-07-29T00:19:18;4.80;;;2.55;;
65759;SDS011;52496;51.082;5.066;2023-07-29T00:21:50;4.05;;;2.33;;
65759;SDS011;52496;51.082;5.066;2023-07-29T00:24:20;5.63;;;2.60;;
65759;SDS011;52496;51.082;5.066;2023-07-29T00:26:51;4.70;;;2.38;;
65759;SDS011;52496;51.082;5.066;2023-07-29T00:29:21;4.38;;;2.50;;
65759;SDS011;52496;51.082;5.066;2023-07-29T00:31:51;5.65;;;2.97;;
65759;SDS011;52496;51.082;5.066;2023-07-29T00:34:22;3.53;;;2.17;;
65759;SDS011;52496;51.082;5.066;2023-07-29T00:36:52;3.53;;;2.00;;
65759;SDS011;52496;51.082;5.066;2023-07-29T00:39:22;3.58;;;2.38;;
65759;SDS011;52496;51.082;5.066;2023-07-29T00:41:53;3.50;;;2.35;;
65759;SDS011;52496;51.082;5.066;2023-07-29T00:44:24;3.85;;;2.20;;
65759;SDS011;52496;51.082;5.066;2023-07-29T00:46:54;3.60;;;2.53;;
65759;SDS011;52496;51.082;5.066;2023-07-29T00:49:25;3.50;;;2.10;;
65759;SDS011;52496;51.082;5.066;2023-07-29T00:51:55;4.60;;;2.38;;
65759;SDS011;52496;51.082;5.066;2023-07-29T00:54:26;3.80;;;2.15;;
65759;SDS011;52496;51.082;5.066;2023-07-29T00:56:56;3.75;;;2.00;;
65759;SDS011;52496;51.082;5.066;2023-07-29T00:59:27;3.30;;;1.83;;
65759;SDS011;52496;51.082;5.066;2023-07-29T01:01:58;3.90;;;2.00;;
65759;SDS011;52496;51.082;5.066;2023-07-29T01:04:29;3.45;;;1.98;;
65759;SDS011;52496;51.082;5.066;2023-07-29T01:07:14;5.10;;;1.90;;
65759;SDS011;52496;51.082;5.066;2023-07-29T01:12:42;3.17;;;1.90;;
65759;SDS011;52496;51.082;5.066;2023-07-29T01:15:21;4.15;;;1.70;;
65759;SDS011;52496;51.082;5.066;2023-07-29T01:18:08;2.47;;;1.50;;
65759;SDS011;52496;51.082;5.066;2023-07-29T01:23:23;2.75;;;1.70;;
65759;SDS011;52496;51.082;5.066;2023-07-29T01:25:54;8.90;;;2.30;;
65759;SDS011;52496;51.082;5.066;2023-07-29T01:28:24;4.45;;;1.70;;
65759;SDS011;52496;51.082;5.066;2023-07-29T01:31:10;3.88;;;1.77;;
65759;SDS011;52496;51.082;5.066;2023-07-29T01:33:48;3.70;;;1.90;;
65759;SDS011;52496;51.082;5.066;2023-07-29T01:36:27;3.15;;;1.90;;
65759;SDS011;52496;51.082;5.066;2023-07-29T01:38:59;3.00;;;1.65;;
65759;SDS011;52496;51.082;5.066;2023-07-29T01:41:32;5.43;;;1.80;;
65759;SDS011;52496;51.082;5.066;2023-07-29T01:44:04;2.40;;;1.52;;
65759;SDS011;52496;51.082;5.066;2023-07-29T01:46:36;3.25;;;2.00;;
65759;SDS011;52496;51.082;5.066;2023-07-29T01:49:07;4.50;;;1.95;;
65759;SDS011;52496;51.082;5.066;2023-07-29T01:51:38;2.80;;;1.70;;
65759;SDS011;52496;51.082;5.066;2023-07-29T01:54:08;3.50;;;1.90;;
65759;SDS011;52496;51.082;5.066;2023-07-29T01:56:39;5.75;;;1.80;;
65759;SDS011;52496;51.082;5.066;2023-07-29T01:59:09;2.80;;;1.45;;
65759;SDS011;52496;51.082;5.066;2023-07-29T02:01:40;3.10;;;1.70;;
65759;SDS011;52496;51.082;5.066;2023-07-29T02:04:10;5.53;;;1.90;;
65759;SDS011;52496;51.082;5.066;2023-07-29T02:06:41;2.83;;;1.75;;
65759;SDS011;52496;51.082;5.066;2023-07-29T02:09:11;4.20;;;1.88;;
65759;SDS011;52496;51.082;5.066;2023-07-29T02:11:41;3.58;;;2.00;;
65759;SDS011;52496;51.082;5.066;2023-07-29T02:14:12;4.95;;;2.13;;
65759;SDS011;52496;51.082;5.066;2023-07-29T02:16:42;4.05;;;1.80;;
65759;SDS011;52496;51.082;5.066;2023-07-29T02:19:13;4.57;;;2.00;;
65759;SDS011;52496;51.082;5.066;2023-07-29T02:21:43;3.20;;;1.70;;
65759;SDS011;52496;51.082;5.066;2023-07-29T02:24:13;3.75;;;1.70;;
65759;SDS011;52496;51.082;5.066;2023-07-29T02:26:44;3.90;;;1.95;;
65759;SDS011;52496;51.082;5.066;2023-07-29T02:29:14;4.35;;;2.22;;
65759;SDS011;52496;51.082;5.066;2023-07-29T02:31:45;3.95;;;1.88;;
65759;SDS011;52496;51.082;5.066;2023-07-29T02:34:15;4.05;;;1.88;;
65759;SDS011;52496;51.082;5.066;2023-07-29T02:36:46;3.97;;;1.80;;
65759;SDS011;52496;51.082;5.066;2023-07-29T02:39:16;2.67;;;1.80;;
65759;SDS011;52496;51.082;5.066;2023-07-29T02:41:47;6.03;;;2.28;;
65759;SDS011;52496;51.082;5.066;2023-07-29T02:44:17;7.32;;;3.05;;
65759;SDS011;52496;51.082;5.066;2023-07-29T02:46:49;2.05;;;1.42;;
65759;SDS011;52496;51.082;5.066;2023-07-29T02:49:20;2.70;;;1.60;;
65759;SDS011;52496;51.082;5.066;2023-07-29T02:51:50;4.55;;;2.13;;
65759;SDS011;52496;51.082;5.066;2023-07-29T02:54:20;3.63;;;1.63;;
65759;SDS011;52496;51.082;5.066;2023-07-29T02:56:51;4.82;;;2.15;;
65759;SDS011;52496;51.082;5.066;2023-07-29T02:59:21;3.28;;;1.67;;
65759;SDS011;52496;51.082;5.066;2023-07-29T03:01:52;4.50;;;1.88;;
65759;SDS011;52496;51.082;5.066;2023-07-29T03:04:23;2.55;;;1.40;;
65759;SDS011;52496;51.082;5.066;2023-07-29T03:06:53;2.65;;;1.60;;
65759;SDS011;52496;51.082;5.066;2023-07-29T03:09:24;2.92;;;1.83;;
65759;SDS011;52496;51.082;5.066;2023-07-29T03:11:55;2.58;;;1.40;;
65759;SDS011;52496;51.082;5.066;2023-07-29T03:14:25;2.50;;;1.40;;
65759;SDS011;52496;51.082;5.066;2023-07-29T03:16:56;2.25;;;1.40;;
65759;SDS011;52496;51.082;5.066;2023-07-29T03:19:26;3.25;;;1.92;;
65759;SDS011;52496;51.082;5.066;2023-07-29T03:21:57;6.53;;;1.95;;
65759;SDS011;52496;51.082;5.066;2023-07-29T03:24:27;4.40;;;2.05;;
65759;SDS011;52496;51.082;5.066;2023-07-29T03:26:58;3.65;;;1.80;;
65759;SDS011;52496;51.082;5.066;2023-07-29T03:29:29;3.42;;;1.83;;
65759;SDS011;52496;51.082;5.066;2023-07-29T03:31:59;3.88;;;1.30;;
65759;SDS011;52496;51.082;5.066;2023-07-29T03:34:30;2.95;;;1.75;;
65759;SDS011;52496;51.082;5.066;2023-07-29T03:37:00;3.75;;;1.60;;
65759;SDS011;52496;51.082;5.066;2023-07-29T03:39:31;2.75;;;1.70;;
65759;SDS011;52496;51.082;5.066;2023-07-29T03:42:01;3.75;;;1.80;;
65759;SDS011;52496;51.082;5.066;2023-07-29T03:44:33;3.58;;;1.90;;
65759;SDS011;52496;51.082;5.066;2023-07-29T03:47:05;3.15;;;1.80;;
65759;SDS011;52496;51.082;5.066;2023-07-29T03:49:36;5.50;;;2.30;;
65759;SDS011;52496;51.082;5.066;2023-07-29T03:52:07;4.45;;;1.98;;
65759;SDS011;52496;51.082;5.066;2023-07-29T03:54:37;7.45;;;2.05;;
65759;SDS011;52496;51.082;5.066;2023-07-29T03:57:07;7.22;;;2.30;;
65759;SDS011;52496;51.082;5.066;2023-07-29T03:59:38;4.55;;;1.67;;
65759;SDS011;52496;51.082;5.066;2023-07-29T04:02:08;3.22;;;1.80;;
65759;SDS011;52496;51.082;5.066;2023-07-29T04:04:39;2.85;;;1.58;;
65759;SDS011;52496;51.082;5.066;2023-07-29T04:07:11;4.93;;;1.70;;
65759;SDS011;52496;51.082;5.066;2023-07-29T04:09:42;4.15;;;1.88;;
65759;SDS011;52496;51.082;5.066;2023-07-29T04:12:13;3.83;;;2.08;;
65759;SDS011;52496;51.082;5.066;2023-07-29T04:14:44;7.43;;;2.10;;
65759;SDS011;52496;51.082;5.066;2023-07-29T04:17:14;6.70;;;1.80;;
65759;SDS011;52496;51.082;5.066;2023-07-29T04:19:45;3.40;;;1.95;;
65759;SDS011;52496;51.082;5.066;2023-07-29T04:22:15;5.35;;;1.80;;
65759;SDS011;52496;51.082;5.066;2023-07-29T04:24:46;2.53;;;1.52;;
65759;SDS011;52496;51.082;5.066;2023-07-29T04:27:16;4.45;;;2.15;;
65759;SDS011;52496;51.082;5.066;2023-07-29T04:29:47;3.28;;;2.08;;
65759;SDS011;52496;51.082;5.066;2023-07-29T04:32:17;7.70;;;1.90;;
65759;SDS011;52496;51.082;5.066;2023-07-29T04:34:48;2.97;;;1.80;;
65759;SDS011;52496;51.082;5.066;2023-07-29T04:37:18;3.55;;;1.73;;
65759;SDS011;52496;51.082;5.066;2023-07-29T04:39:49;2.13;;;1.52;;
65759;SDS011;52496;51.082;5.066;2023-07-29T04:42:19;4.18;;;2.08;;
65759;SDS011;52496;51.082;5.066;2023-07-29T04:44:49;3.75;;;2.05;;
65759;SDS011;52496;51.082;5.066;2023-07-29T04:47:20;4.00;;;1.80;;
65759;SDS011;52496;51.082;5.066;2023-07-29T04:49:50;5.43;;;1.90;;
65759;SDS011;52496;51.082;5.066;2023-07-29T04:52:21;3.70;;;1.90;;
65759;SDS011;52496;51.082;5.066;2023-07-29T04:54:51;6.63;;;2.08;;
65759;SDS011;52496;51.082;5.066;2023-07-29T04:57:22;3.50;;;1.85;;
65759;SDS011;52496;51.082;5.066;2023-07-29T04:59:52;5.25;;;2.50;;
65759;SDS011;52496;51.082;5.066;2023-07-29T05:02:23;9.55;;;2.83;;
65759;SDS011;52496;51.082;5.066;2023-07-29T05:04:53;3.78;;;2.10;;
65759;SDS011;52496;51.082;5.066;2023-07-29T05:07:24;5.03;;;2.10;;
65759;SDS011;52496;51.082;5.066;2023-07-29T05:09:54;4.68;;;1.88;;
65759;SDS011;52496;51.082;5.066;2023-07-29T05:12:24;3.38;;;2.03;;
65759;SDS011;52496;51.082;5.066;2023-07-29T05:14:55;5.07;;;2.30;;
65759;SDS011;52496;51.082;5.066;2023-07-29T05:17:25;5.18;;;1.90;;
65759;SDS011;52496;51.082;5.066;2023-07-29T05:19:56;4.72;;;1.88;;
65759;SDS011;52496;51.082;5.066;2023-07-29T05:22:26;3.92;;;1.95;;
65759;SDS011;52496;51.082;5.066;2023-07-29T05:24:57;5.50;;;1.85;;
65759;SDS011;52496;51.082;5.066;2023-07-29T05:27:27;4.80;;;2.00;;
65759;SDS011;52496;51.082;5.066;2023-07-29T05:29:57;2.95;;;1.90;;
65759;SDS011;52496;51.082;5.066;2023-07-29T05:32:28;3.10;;;1.98;;
65759;SDS011;52496;51.082;5.066;2023-07-29T05:34:59;4.82;;;2.22;;
65759;SDS011;52496;51.082;5.066;2023-07-29T05:37:30;4.97;;;1.98;;
65759;SDS011;52496;51.082;5.066;2023-07-29T05:40:00;2.67;;;1.60;;
65759;SDS011;52496;51.082;5.066;2023-07-29T05:42:32;2.72;;;1.90;;
65759;SDS011;52496;51.082;5.066;2023-07-29T05:45:03;2.40;;;1.58;;
65759;SDS011;52496;51.082;5.066;2023-07-29T05:47:33;3.95;;;1.90;;
65759;SDS011;52496;51.082;5.066;2023-07-29T05:50:04;3.88;;;1.90;;
65759;SDS011;52496;51.082;5.066;2023-07-29T05:52:36;4.38;;;1.67;;
65759;SDS011;52496;51.082;5.066;2023-07-29T05:55:07;3.63;;;1.75;;
65759;SDS011;52496;51.082;5.066;2023-07-29T05:57:38;3.92;;;2.03;;
65759;SDS011;52496;51.082;5.066;2023-07-29T06:00:09;2.42;;;1.50;;
65759;SDS011;52496;51.082;5.066;2023-07-29T06:02:40;4.10;;;1.65;;
65759;SDS011;52496;51.082;5.066;2023-07-29T06:05:13;4.03;;;1.55;;
65759;SDS011;52496;51.082;5.066;2023-07-29T06:07:43;2.50;;;1.42;;
65759;SDS011;52496;51.082;5.066;2023-07-29T06:10:15;2.78;;;1.33;;
65759;SDS011;52496;51.082;5.066;2023-07-29T06:12:49;2.90;;;1.63;;
65759;SDS011;52496;51.082;5.066;2023-07-29T06:15:19;3.35;;;1.90;;
65759;SDS011;52496;51.082;5.066;2023-07-29T06:17:53;3.75;;;1.70;;
65759;SDS011;52496;51.082;5.066;2023-07-29T06:20:23;3.80;;;1.60;;
65759;SDS011;52496;51.082;5.066;2023-07-29T06:22:54;2.78;;;1.40;;
65759;SDS011;52496;51.082;5.066;2023-07-29T06:25:24;3.38;;;1.30;;
65759;SDS011;52496;51.082;5.066;2023-07-29T06:27:55;3.20;;;1.60;;
65759;SDS011;52496;51.082;5.066;2023-07-29T06:30:26;2.28;;;1.63;;
65759;SDS011;52496;51.082;5.066;2023-07-29T06:32:56;4.28;;;2.83;;
65759;SDS011;52496;51.082;5.066;2023-07-29T06:35:27;3.63;;;1.50;;
65759;SDS011;52496;51.082;5.066;2023-07-29T06:37:57;9.15;;;1.38;;
65759;SDS011;52496;51.082;5.066;2023-07-29T06:40:28;4.60;;;1.70;;
65759;SDS011;52496;51.082;5.066;2023-07-29T06:42:59;3.22;;;1.58;;
65759;SDS011;52496;51.082;5.066;2023-07-29T06:45:30;1.42;;;1.15;;
65759;SDS011;52496;51.082;5.066;2023-07-29T06:48:00;4.32;;;1.55;;
65759;SDS011;52496;51.082;5.066;2023-07-29T06:50:31;4.10;;;1.58;;
65759;SDS011;52496;51.082;5.066;2023-07-29T06:53:01;2.75;;;1.60;;
65759;SDS011;52496;51.082;5.066;2023-07-29T06:55:32;4.15;;;1.23;;
65759;SDS011;52496;51.082;5.066;2023-07-29T06:58:02;3.08;;;1.58;;
65759;SDS011;52496;51.082;5.066;2023-07-29T07:00:33;2.22;;;1.30;;
65759;SDS011;52496;51.082;5.066;2023-07-29T07:03:03;1.50;;;0.98;;
65759;SDS011;52496;51.082;5.066;2023-07-29T07:05:34;2.20;;;1.30;;
65759;SDS011;52496;51.082;5.066;2023-07-29T07:08:04;2.85;;;1.35;;
65759;SDS011;52496;51.082;5.066;2023-07-29T07:10:35;3.08;;;1.42;;
65759;SDS011;52496;51.082;5.066;2023-07-29T07:13:05;2.45;;;1.05;;
65759;SDS011;52496;51.082;5.066;2023-07-29T07:15:36;2.08;;;1.25;;
65759;SDS011;52496;51.082;5.066;2023-07-29T07:18:06;2.65;;;1.30;;
65759;SDS011;52496;51.082;5.066;2023-07-29T07:20:37;2.30;;;1.13;;
65759;SDS011;52496;51.082;5.066;2023-07-29T07:23:07;2.97;;;1.58;;
65759;SDS011;52496;51.082;5.066;2023-07-29T07:25:41;3.67;;;1.40;;
65759;SDS011;52496;51.082;5.066;2023-07-29T07:28:14;1.92;;;1.27;;
65759;SDS011;52496;51.082;5.066;2023-07-29T07:30:45;2.97;;;1.40;;
65759;SDS011;52496;51.082;5.066;2023-07-29T07:33:16;2.22;;;1.40;;
65759;SDS011;52496;51.082;5.066;2023-07-29T07:35:46;4.75;;;1.38;;
65759;SDS011;52496;51.082;5.066;2023-07-29T07:38:16;2.75;;;1.40;;
65759;SDS011;52496;51.082;5.066;2023-07-29T07:40:54;2.67;;;1.25;;
65759;SDS011;52496;51.082;5.066;2023-07-29T07:43:25;1.33;;;0.85;;
65759;SDS011;52496;51.082;5.066;2023-07-29T07:45:59;4.70;;;1.80;;
65759;SDS011;52496;51.082;5.066;2023-07-29T07:48:31;1.92;;;1.23;;
65759;SDS011;52496;51.082;5.066;2023-07-29T07:51:10;1.67;;;1.17;;
65759;SDS011;52496;51.082;5.066;2023-07-29T07:53:42;1.48;;;1.00;;
65759;SDS011;52496;51.082;5.066;2023-07-29T07:56:12;1.70;;;1.00;;
65759;SDS011;52496;51.082;5.066;2023-07-29T07:58:43;2.60;;;1.15;;
65759;SDS011;52496;51.082;5.066;2023-07-29T08:01:13;2.58;;;1.25;;
65759;SDS011;52496;51.082;5.066;2023-07-29T08:03:44;2.38;;;1.30;;
65759;SDS011;52496;51.082;5.066;2023-07-29T08:06:14;1.80;;;1.13;;
65759;SDS011;52496;51.082;5.066;2023-07-29T08:08:45;1.95;;;1.25;;
65759;SDS011;52496;51.082;5.066;2023-07-29T08:11:15;2.58;;;1.35;;
65759;SDS011;52496;51.082;5.066;2023-07-29T08:13:46;2.60;;;1.02;;
65759;SDS011;52496;51.082;5.066;2023-07-29T08:16:16;1.90;;;1.02;;
65759;SDS011;52496;51.082;5.066;2023-07-29T08:18:47;2.95;;;0.90;;
65759;SDS011;52496;51.082;5.066;2023-07-29T08:21:18;5.20;;;1.40;;
65759;SDS011;52496;51.082;5.066;2023-07-29T08:23:48;2.20;;;1.08;;
65759;SDS011;52496;51.082;5.066;2023-07-29T08:26:19;5.38;;;1.42;;
65759;SDS011;52496;51.082;5.066;2023-07-29T08:28:49;2.65;;;1.40;;
65759;SDS011;52496;51.082;5.066;2023-07-29T08:31:20;1.33;;;1.17;;
65759;SDS011;52496;51.082;5.066;2023-07-29T08:33:51;1.90;;;1.17;;
65759;SDS011;52496;51.082;5.066;2023-07-29T08:36:21;2.47;;;1.50;;
65759;SDS011;52496;51.082;5.066;2023-07-29T08:38:51;1.58;;;1.05;;
65759;SDS011;52496;51.082;5.066;2023-07-29T08:41:26;2.63;;;1.02;;
65759;SDS011;52496;51.082;5.066;2023-07-29T08:44:12;1.63;;;1.08;;
65759;SDS011;52496;51.082;5.066;2023-07-29T08:46:52;2.13;;;1.27;;
65759;SDS011;52496;51.082;5.066;2023-07-29T08:49:24;2.38;;;1.40;;
65759;SDS011;52496;51.082;5.066;2023-07-29T08:51:56;2.88;;;1.50;;
65759;SDS011;52496;51.082;5.066;2023-07-29T08:54:27;2.25;;;1.30;;
65759;SDS011;52496;51.082;5.066;2023-07-29T08:56:59;4.53;;;1.90;;
65759;SDS011;52496;51.082;5.066;2023-07-29T08:59:30;1.60;;;1.10;;
65759;SDS011;52496;51.082;5.066;2023-07-29T09:02:01;2.00;;;1.33;;
65759;SDS011;52496;51.082;5.066;2023-07-29T09:04:32;1.77;;;1.20;;
65759;SDS011;52496;51.082;5.066;2023-07-29T09:07:02;2.60;;;1.33;;
65759;SDS011;52496;51.082;5.066;2023-07-29T09:09:34;1.80;;;1.05;;
65759;SDS011;52496;51.082;5.066;2023-07-29T09:12:05;1.95;;;1.10;;
65759;SDS011;52496;51.082;5.066;2023-07-29T09:14:36;3.97;;;1.38;;
65759;SDS011;52496;51.082;5.066;2023-07-29T09:17:08;2.45;;;1.30;;
65759;SDS011;52496;51.082;5.066;2023-07-29T09:19:38;1.73;;;1.00;;
65759;SDS011;52496;51.082;5.066;2023-07-29T09:22:16;1.83;;;1.00;;
65759;SDS011;52496;51.082;5.066;2023-07-29T09:24:50;2.75;;;1.33;;
65759;SDS011;52496;51.082;5.066;2023-07-29T09:27:27;2.00;;;1.13;;
65759;SDS011;52496;51.082;5.066;2023-07-29T09:30:01;3.47;;;1.60;;
65759;SDS011;52496;51.082;5.066;2023-07-29T09:32:33;2.55;;;1.42;;
65759;SDS011;52496;51.082;5.066;2023-07-29T09:35:05;1.92;;;1.08;;
65759;SDS011;52496;51.082;5.066;2023-07-29T09:37:41;4.53;;;1.50;;
65759;SDS011;52496;51.082;5.066;2023-07-29T09:40:14;1.52;;;0.90;;
65759;SDS011;52496;51.082;5.066;2023-07-29T09:42:53;2.47;;;1.35;;
65759;SDS011;52496;51.082;5.066;2023-07-29T09:45:26;2.03;;;1.20;;
65759;SDS011;52496;51.082;5.066;2023-07-29T09:47:57;3.45;;;1.45;;
65759;SDS011;52496;51.082;5.066;2023-07-29T09:50:29;3.15;;;1.50;;
65759;SDS011;52496;51.082;5.066;2023-07-29T09:52:59;4.63;;;1.40;;
65759;SDS011;52496;51.082;5.066;2023-07-29T09:55:32;2.10;;;1.35;;
65759;SDS011;52496;51.082;5.066;2023-07-29T09:58:03;3.00;;;1.60;;
65759;SDS011;52496;51.082;5.066;2023-07-29T10:00:38;3.05;;;1.80;;
65759;SDS011;52496;51.082;5.066;2023-07-29T10:03:10;2.45;;;1.50;;
65759;SDS011;52496;51.082;5.066;2023-07-29T10:05:41;3.40;;;1.70;;
65759;SDS011;52496;51.082;5.066;2023-07-29T10:08:12;2.63;;;1.50;;
65759;SDS011;52496;51.082;5.066;2023-07-29T10:10:44;3.53;;;1.70;;
65759;SDS011;52496;51.082;5.066;2023-07-29T10:13:15;4.45;;;1.50;;
65759;SDS011;52496;51.082;5.066;2023-07-29T10:15:46;2.17;;;1.58;;
65759;SDS011;52496;51.082;5.066;2023-07-29T10:18:16;2.90;;;1.58;;
65759;SDS011;52496;51.082;5.066;2023-07-29T10:20:52;2.58;;;1.52;;
65759;SDS011;52496;51.082;5.066;2023-07-29T10:23:24;3.05;;;1.50;;
65759;SDS011;52496;51.082;5.066;2023-07-29T10:26:02;2.60;;;1.55;;
65759;SDS011;52496;51.082;5.066;2023-07-29T10:28:34;1.70;;;1.25;;
65759;SDS011;52496;51.082;5.066;2023-07-29T10:31:10;3.60;;;1.75;;
65759;SDS011;52496;51.082;5.066;2023-07-29T10:33:42;2.08;;;1.40;;
65759;SDS011;52496;51.082;5.066;2023-07-29T10:36:14;3.05;;;1.58;;
65759;SDS011;52496;51.082;5.066;2023-07-29T10:38:45;2.40;;;1.63;;
65759;SDS011;52496;51.082;5.066;2023-07-29T10:41:16;1.65;;;1.30;;
65759;SDS011;52496;51.082;5.066;2023-07-29T10:43:47;2.65;;;1.58;;
65759;SDS011;52496;51.082;5.066;2023-07-29T10:46:21;3.38;;;1.65;;
65759;SDS011;52496;51.082;5.066;2023-07-29T10:48:53;3.42;;;1.83;;
65759;SDS011;52496;51.082;5.066;2023-07-29T10:51:28;2.83;;;1.55;;
65759;SDS011;52496;51.082;5.066;2023-07-29T10:54:15;2.30;;;1.35;;
65759;SDS011;52496;51.082;5.066;2023-07-29T10:56:49;3.63;;;1.70;;
65759;SDS011;52496;51.082;5.066;2023-07-29T11:01:51;3.92;;;1.73;;
65759;SDS011;52496;51.082;5.066;2023-07-29T11:04:28;3.03;;;1.70;;
65759;SDS011;52496;51.082;5.066;2023-07-29T11:09:41;2.63;;;1.80;;
65759;SDS011;52496;51.082;5.066;2023-07-29T11:15:12;3.22;;;1.52;;
65759;SDS011;52496;51.082;5.066;2023-07-29T11:17:51;3.90;;;1.60;;
65759;SDS011;52496;51.082;5.066;2023-07-29T11:20:30;4.35;;;1.42;;
65759;SDS011;52496;51.082;5.066;2023-07-29T11:23:02;4.85;;;1.77;;
65759;SDS011;52496;51.082;5.066;2023-07-29T11:25:33;4.80;;;1.80;;
65759;SDS011;52496;51.082;5.066;2023-07-29T11:28:05;3.38;;;1.80;;
65759;SDS011;52496;51.082;5.066;2023-07-29T11:30:38;3.50;;;1.75;;
65759;SDS011;52496;51.082;5.066;2023-07-29T11:33:09;2.17;;;1.30;;
65759;SDS011;52496;51.082;5.066;2023-07-29T11:35:41;3.15;;;1.75;;
65759;SDS011;52496;51.082;5.066;2023-07-29T11:38:15;6.63;;;2.22;;
65759;SDS011;52496;51.082;5.066;2023-07-29T11:40:53;3.22;;;1.83;;
65759;SDS011;52496;51.082;5.066;2023-07-29T11:43:28;6.40;;;1.90;;
65759;SDS011;52496;51.082;5.066;2023-07-29T11:46:00;4.63;;;2.10;;
65759;SDS011;52496;51.082;5.066;2023-07-29T11:48:31;2.50;;;1.65;;
65759;SDS011;52496;51.082;5.066;2023-07-29T11:51:03;4.13;;;1.58;;
65759;SDS011;52496;51.082;5.066;2023-07-29T11:53:34;3.90;;;2.00;;
65759;SDS011;52496;51.082;5.066;2023-07-29T11:56:04;2.72;;;1.65;;
65759;SDS011;52496;51.082;5.066;2023-07-29T11:58:35;2.97;;;1.65;;
65759;SDS011;52496;51.082;5.066;2023-07-29T12:01:06;2.95;;;1.98;;
65759;SDS011;52496;51.082;5.066;2023-07-29T12:03:38;4.60;;;1.73;;
65759;SDS011;52496;51.082;5.066;2023-07-29T12:06:08;2.45;;;1.60;;
65759;SDS011;52496;51.082;5.066;2023-07-29T12:08:39;4.70;;;1.90;;
65759;SDS011;52496;51.082;5.066;2023-07-29T12:11:11;5.70;;;2.13;;
65759;SDS011;52496;51.082;5.066;2023-07-29T12:13:43;5.78;;;2.00;;
65759;SDS011;52496;51.082;5.066;2023-07-29T12:16:16;3.63;;;2.08;;
65759;SDS011;52496;51.082;5.066;2023-07-29T12:18:50;4.03;;;2.10;;
65759;SDS011;52496;51.082;5.066;2023-07-29T12:21:20;2.95;;;1.90;;
65759;SDS011;52496;51.082;5.066;2023-07-29T12:23:51;3.28;;;1.92;;
65759;SDS011;52496;51.082;5.066;2023-07-29T12:26:26;5.47;;;2.00;;
65759;SDS011;52496;51.082;5.066;2023-07-29T12:28:58;3.33;;;1.83;;
65759;SDS011;52496;51.082;5.066;2023-07-29T12:31:32;3.95;;;1.90;;
65759;SDS011;52496;51.082;5.066;2023-07-29T12:34:03;3.22;;;2.05;;
65759;SDS011;52496;51.082;5.066;2023-07-29T12:36:47;3.92;;;2.08;;
65759;SDS011;52496;51.082;5.066;2023-07-29T12:39:29;3.55;;;1.95;;
65759;SDS011;52496;51.082;5.066;2023-07-29T12:42:02;3.95;;;1.60;;
65759;SDS011;52496;51.082;5.066;2023-07-29T12:44:35;3.33;;;1.90;;
65759;SDS011;52496;51.082;5.066;2023-07-29T12:47:06;3.63;;;2.13;;
65759;SDS011;52496;51.082;5.066;2023-07-29T12:49:38;5.65;;;1.83;;
65759;SDS011;52496;51.082;5.066;2023-07-29T12:52:09;2.72;;;1.63;;
65759;SDS011;52496;51.082;5.066;2023-07-29T12:54:39;3.40;;;1.83;;
65759;SDS011;52496;51.082;5.066;2023-07-29T12:57:10;3.97;;;1.95;;
65759;SDS011;52496;51.082;5.066;2023-07-29T12:59:41;3.28;;;1.92;;
65759;SDS011;52496;51.082;5.066;2023-07-29T13:02:11;2.58;;;1.77;;
65759;SDS011;52496;51.082;5.066;2023-07-29T13:04:42;3.55;;;1.90;;
65759;SDS011;52496;51.082;5.066;2023-07-29T13:07:12;3.10;;;2.00;;
65759;SDS011;52496;51.082;5.066;2023-07-29T13:09:43;3.45;;;1.80;;
65759;SDS011;52496;51.082;5.066;2023-07-29T13:12:13;3.50;;;2.15;;
65759;SDS011;52496;51.082;5.066;2023-07-29T13:14:44;3.35;;;2.05;;
65759;SDS011;52496;51.082;5.066;2023-07-29T13:17:14;2.88;;;1.80;;
65759;SDS011;52496;51.082;5.066;2023-07-29T13:19:45;2.53;;;1.73;;
65759;SDS011;52496;51.082;5.066;2023-07-29T13:22:16;4.45;;;2.10;;
65759;SDS011;52496;51.082;5.066;2023-07-29T13:24:46;2.88;;;1.77;;
65759;SDS011;52496;51.082;5.066;2023-07-29T13:27:17;3.30;;;1.92;;
65759;SDS011;52496;51.082;5.066;2023-07-29T13:29:47;3.10;;;1.75;;
65759;SDS011;52496;51.082;5.066;2023-07-29T13:32:18;4.05;;;1.90;;
65759;SDS011;52496;51.082;5.066;2023-07-29T13:34:48;3.70;;;1.50;;
65759;SDS011;52496;51.082;5.066;2023-07-29T13:37:19;3.35;;;2.00;;
65759;SDS011;52496;51.082;5.066;2023-07-29T13:39:50;3.35;;;1.75;;
65759;SDS011;52496;51.082;5.066;2023-07-29T13:42:20;3.38;;;1.60;;
65759;SDS011;52496;51.082;5.066;2023-07-29T13:44:51;1.60;;;1.35;;
65759;SDS011;52496;51.082;5.066;2023-07-29T13:47:21;3.25;;;1.88;;
65759;SDS011;52496;51.082;5.066;2023-07-29T13:49:52;2.50;;;1.85;;
65759;SDS011;52496;51.082;5.066;2023-07-29T13:52:22;2.88;;;1.70;;
65759;SDS011;52496;51.082;5.066;2023-07-29T13:54:53;2.35;;;1.70;;
65759;SDS011;52496;51.082;5.066;2023-07-29T13:57:24;2.53;;;1.65;;
65759;SDS011;52496;51.082;5.066;2023-07-29T13:59:54;3.15;;;1.70;;
65759;SDS011;52496;51.082;5.066;2023-07-29T14:02:25;3.75;;;1.60;;
65759;SDS011;52496;51.082;5.066;2023-07-29T14:04:58;2.97;;;1.73;;
65759;SDS011;52496;51.082;5.066;2023-07-29T14:07:29;3.45;;;1.85;;
65759;SDS011;52496;51.082;5.066;2023-07-29T14:09:59;2.50;;;1.80;;
65759;SDS011;52496;51.082;5.066;2023-07-29T14:12:30;2.92;;;1.60;;
65759;SDS011;52496;51.082;5.066;2023-07-29T14:15:00;2.83;;;1.90;;
65759;SDS011;52496;51.082;5.066;2023-07-29T14:17:31;2.22;;;1.80;;
65759;SDS011;52496;51.082;5.066;2023-07-29T14:20:02;3.15;;;1.55;;
65759;SDS011;52496;51.082;5.066;2023-07-29T14:22:35;2.60;;;1.88;;
65759;SDS011;52496;51.082;5.066;2023-07-29T14:25:06;2.80;;;1.70;;
65759;SDS011;52496;51.082;5.066;2023-07-29T14:27:37;3.67;;;2.20;;
65759;SDS011;52496;51.082;5.066;2023-07-29T14:30:07;2.97;;;1.80;;
65759;SDS011;52496;51.082;5.066;2023-07-29T14:32:38;2.38;;;1.65;;
65759;SDS011;52496;51.082;5.066;2023-07-29T14:35:09;2.63;;;1.58;;
65759;SDS011;52496;51.082;5.066;2023-07-29T14:37:39;2.65;;;1.67;;
65759;SDS011;52496;51.082;5.066;2023-07-29T14:40:10;2.72;;;1.75;;
65759;SDS011;52496;51.082;5.066;2023-07-29T14:42:40;3.13;;;1.92;;
65759;SDS011;52496;51.082;5.066;2023-07-29T14:45:11;3.30;;;1.90;;
65759;SDS011;52496;51.082;5.066;2023-07-29T14:47:41;2.72;;;1.60;;
65759;SDS011;52496;51.082;5.066;2023-07-29T14:50:12;3.00;;;1.70;;
65759;SDS011;52496;51.082;5.066;2023-07-29T14:52:42;3.05;;;2.35;;
65759;SDS011;52496;51.082;5.066;2023-07-29T14:55:13;2.55;;;1.70;;
65759;SDS011;52496;51.082;5.066;2023-07-29T14:57:43;2.08;;;1.60;;
65759;SDS011;52496;51.082;5.066;2023-07-29T15:00:14;3.08;;;1.85;;
65759;SDS011;52496;51.082;5.066;2023-07-29T15:02:44;5.97;;;1.60;;
65759;SDS011;52496;51.082;5.066;2023-07-29T15:05:15;3.58;;;1.85;;
65759;SDS011;52496;51.082;5.066;2023-07-29T15:07:46;4.47;;;2.03;;
65759;SDS011;52496;51.082;5.066;2023-07-29T15:10:17;3.03;;;1.90;;
65759;SDS011;52496;51.082;5.066;2023-07-29T15:12:47;3.60;;;2.30;;
65759;SDS011;52496;51.082;5.066;2023-07-29T15:15:18;6.65;;;2.17;;
65759;SDS011;52496;51.082;5.066;2023-07-29T15:17:48;6.53;;;2.47;;
65759;SDS011;52496;51.082;5.066;2023-07-29T15:20:19;4.20;;;2.38;;
65759;SDS011;52496;51.082;5.066;2023-07-29T15:22:49;3.78;;;1.88;;
65759;SDS011;52496;51.082;5.066;2023-07-29T15:25:20;4.90;;;2.13;;
65759;SDS011;52496;51.082;5.066;2023-07-29T15:27:50;3.67;;;2.13;;